sensor_id;sensor_type;location;lat;lon;timestamp;P1;durP1;ratioP1;P2;durP2;ratioP2
54408;SDS011;40315;48.620;9.828;2023-06-04T00:00:06;5.70;;;4.45;;
54408;SDS011;40315;48.620;9.828;2023-06-04T00:02:34;5.72;;;4.13;;
54408;SDS011;40315;48.620;9.828;2023-06-04T00:05:06;5.85;;;4.63;;
54408;SDS011;40315;48.620;9.828;2023-06-04T00:07:34;6.43;;;4.70;;
54408;SDS011;40315;48.620;9.828;2023-06-04T00:10:01;6.95;;;4.60;;
54408;SDS011;40315;48.620;9.828;2023-06-04T00:12:28;4.88;;;3.95;;
54408;SDS011;40315;48.620;9.828;2023-06-04T00:14:55;5.68;;;3.88;;
54408;SDS011;40315;48.620;9.828;2023-06-04T00:17:22;5.25;;;3.80;;
54408;SDS011;40315;48.620;9.828;2023-06-04T00:19:51;7.97;;;3.85;;
54408;SDS011;40315;48.620;9.828;2023-06-04T00:22:19;4.82;;;3.83;;
54408;SDS011;40315;48.620;9.828;2023-06-04T00:24:50;4.45;;;3.38;;
54408;SDS011;40315;48.620;9.828;2023-06-04T00:27:20;3.30;;;3.00;;
54408;SDS011;40315;48.620;9.828;2023-06-04T00:29:47;4.35;;;3.40;;
54408;SDS011;40315;48.620;9.828;2023-06-04T00:32:14;5.13;;;3.20;;
54408;SDS011;40315;48.620;9.828;2023-06-04T00:34:48;3.78;;;3.03;;
54408;SDS011;40315;48.620;9.828;2023-06-04T00:37:24;4.07;;;3.40;;
54408;SDS011;40315;48.620;9.828;2023-06-04T00:39:54;5.78;;;3.50;;
54408;SDS011;40315;48.620;9.828;2023-06-04T00:42:23;4.45;;;3.30;;
54408;SDS011;40315;48.620;9.828;2023-06-04T00:44:50;3.78;;;3.10;;
54408;SDS011;40315;48.620;9.828;2023-06-04T00:47:28;4.68;;;3.40;;
54408;SDS011;40315;48.620;9.828;2023-06-04T00:49:56;4.78;;;3.60;;
54408;SDS011;40315;48.620;9.828;2023-06-04T00:52:31;4.68;;;3.33;;
54408;SDS011;40315;48.620;9.828;2023-06-04T00:54:58;6.65;;;3.50;;
54408;SDS011;40315;48.620;9.828;2023-06-04T00:57:26;3.47;;;2.83;;
54408;SDS011;40315;48.620;9.828;2023-06-04T00:59:55;3.58;;;3.00;;
54408;SDS011;40315;48.620;9.828;2023-06-04T01:02:23;4.80;;;3.25;;
54408;SDS011;40315;48.620;9.828;2023-06-04T01:04:53;5.70;;;3.00;;
54408;SDS011;40315;48.620;9.828;2023-06-04T01:07:28;6.63;;;3.40;;
54408;SDS011;40315;48.620;9.828;2023-06-04T01:09:57;5.32;;;3.58;;
54408;SDS011;40315;48.620;9.828;2023-06-04T01:12:26;4.72;;;3.20;;
54408;SDS011;40315;48.620;9.828;2023-06-04T01:14:53;4.47;;;3.30;;
54408;SDS011;40315;48.620;9.828;2023-06-04T01:17:21;3.67;;;2.88;;
54408;SDS011;40315;48.620;9.828;2023-06-04T01:19:58;5.50;;;3.22;;
54408;SDS011;40315;48.620;9.828;2023-06-04T01:22:39;4.35;;;3.03;;
54408;SDS011;40315;48.620;9.828;2023-06-04T01:25:12;3.63;;;2.80;;
54408;SDS011;40315;48.620;9.828;2023-06-04T01:27:46;3.72;;;3.10;;
54408;SDS011;40315;48.620;9.828;2023-06-04T01:30:15;4.80;;;3.20;;
54408;SDS011;40315;48.620;9.828;2023-06-04T01:32:43;4.88;;;2.90;;
54408;SDS011;40315;48.620;9.828;2023-06-04T01:35:12;4.18;;;3.17;;
54408;SDS011;40315;48.620;9.828;2023-06-04T01:37:43;3.10;;;2.78;;
54408;SDS011;40315;48.620;9.828;2023-06-04T01:40:10;4.95;;;2.97;;
54408;SDS011;40315;48.620;9.828;2023-06-04T01:42:40;5.47;;;3.88;;
54408;SDS011;40315;48.620;9.828;2023-06-04T01:45:08;4.47;;;3.00;;
54408;SDS011;40315;48.620;9.828;2023-06-04T07:40:53;3.10;;;2.30;;
54408;SDS011;40315;48.620;9.828;2023-06-04T07:43:20;3.47;;;2.55;;
54408;SDS011;40315;48.620;9.828;2023-06-04T07:45:49;4.22;;;2.70;;
54408;SDS011;40315;48.620;9.828;2023-06-04T07:48:18;2.50;;;2.20;;
54408;SDS011;40315;48.620;9.828;2023-06-04T07:50:45;2.33;;;2.10;;
54408;SDS011;40315;48.620;9.828;2023-06-04T07:53:15;4.28;;;2.50;;
54408;SDS011;40315;48.620;9.828;2023-06-04T07:55:42;3.63;;;2.47;;
54408;SDS011;40315;48.620;9.828;2023-06-04T07:58:10;2.88;;;2.42;;
54408;SDS011;40315;48.620;9.828;2023-06-04T08:00:39;6.13;;;2.20;;
54408;SDS011;40315;48.620;9.828;2023-06-04T08:03:07;5.22;;;2.35;;
54408;SDS011;40315;48.620;9.828;2023-06-04T08:05:34;2.80;;;2.50;;
54408;SDS011;40315;48.620;9.828;2023-06-04T08:08:03;3.35;;;2.10;;
54408;SDS011;40315;48.620;9.828;2023-06-04T08:10:30;3.90;;;2.20;;
54408;SDS011;40315;48.620;9.828;2023-06-04T08:12:57;3.95;;;2.70;;
54408;SDS011;40315;48.620;9.828;2023-06-04T08:15:26;3.17;;;2.30;;
54408;SDS011;40315;48.620;9.828;2023-06-04T08:17:53;4.68;;;2.30;;
54408;SDS011;40315;48.620;9.828;2023-06-04T08:20:20;3.58;;;2.30;;
54408;SDS011;40315;48.620;9.828;2023-06-04T08:22:47;5.05;;;2.20;;
54408;SDS011;40315;48.620;9.828;2023-06-04T08:25:15;2.80;;;2.10;;
54408;SDS011;40315;48.620;9.828;2023-06-04T08:27:42;3.58;;;2.30;;
54408;SDS011;40315;48.620;9.828;2023-06-04T08:30:10;4.30;;;2.75;;
54408;SDS011;40315;48.620;9.828;2023-06-04T08:32:38;4.50;;;2.47;;
54408;SDS011;40315;48.620;9.828;2023-06-04T08:35:06;3.67;;;2.20;;
54408;SDS011;40315;48.620;9.828;2023-06-04T08:37:34;3.50;;;2.40;;
54408;SDS011;40315;48.620;9.828;2023-06-04T08:40:04;4.10;;;2.30;;
54408;SDS011;40315;48.620;9.828;2023-06-04T08:42:34;4.40;;;2.60;;
54408;SDS011;40315;48.620;9.828;2023-06-04T08:45:06;3.08;;;2.53;;
54408;SDS011;40315;48.620;9.828;2023-06-04T08:47:39;3.80;;;2.50;;
54408;SDS011;40315;48.620;9.828;2023-06-04T08:50:10;5.55;;;2.67;;
54408;SDS011;40315;48.620;9.828;2023-06-04T08:52:38;6.43;;;2.80;;
54408;SDS011;40315;48.620;9.828;2023-06-04T08:55:06;3.63;;;2.65;;
54408;SDS011;40315;48.620;9.828;2023-06-04T08:57:38;3.17;;;2.50;;
54408;SDS011;40315;48.620;9.828;2023-06-04T09:00:06;2.70;;;2.38;;
54408;SDS011;40315;48.620;9.828;2023-06-04T09:02:35;3.88;;;2.47;;
54408;SDS011;40315;48.620;9.828;2023-06-04T09:05:07;8.13;;;2.78;;
54408;SDS011;40315;48.620;9.828;2023-06-04T09:07:36;4.05;;;2.63;;
54408;SDS011;40315;48.620;9.828;2023-06-04T09:10:05;3.33;;;3.03;;
54408;SDS011;40315;48.620;9.828;2023-06-04T09:12:35;3.45;;;2.88;;
54408;SDS011;40315;48.620;9.828;2023-06-04T09:15:03;4.50;;;2.95;;
54408;SDS011;40315;48.620;9.828;2023-06-04T09:17:30;6.40;;;2.85;;
54408;SDS011;40315;48.620;9.828;2023-06-04T09:20:00;2.78;;;2.50;;
54408;SDS011;40315;48.620;9.828;2023-06-04T09:22:33;3.47;;;2.65;;
54408;SDS011;40315;48.620;9.828;2023-06-04T09:25:01;3.20;;;2.78;;
54408;SDS011;40315;48.620;9.828;2023-06-04T09:27:36;3.00;;;2.55;;
54408;SDS011;40315;48.620;9.828;2023-06-04T09:30:05;6.43;;;3.15;;
54408;SDS011;40315;48.620;9.828;2023-06-04T09:32:34;5.70;;;3.10;;
54408;SDS011;40315;48.620;9.828;2023-06-04T09:35:09;3.53;;;3.13;;
54408;SDS011;40315;48.620;9.828;2023-06-04T09:37:39;3.70;;;3.13;;
54408;SDS011;40315;48.620;9.828;2023-06-04T09:40:07;5.35;;;3.35;;
54408;SDS011;40315;48.620;9.828;2023-06-04T09:42:43;3.92;;;2.95;;
54408;SDS011;40315;48.620;9.828;2023-06-04T09:45:11;5.05;;;3.20;;
54408;SDS011;40315;48.620;9.828;2023-06-04T09:47:41;3.80;;;2.97;;
54408;SDS011;40315;48.620;9.828;2023-06-04T09:50:09;5.70;;;3.47;;
54408;SDS011;40315;48.620;9.828;2023-06-04T09:52:37;5.38;;;3.63;;
54408;SDS011;40315;48.620;9.828;2023-06-04T09:55:18;3.90;;;3.35;;
54408;SDS011;40315;48.620;9.828;2023-06-04T09:57:47;3.78;;;3.35;;
54408;SDS011;40315;48.620;9.828;2023-06-04T10:00:16;6.47;;;3.60;;
54408;SDS011;40315;48.620;9.828;2023-06-04T10:02:48;4.10;;;3.45;;
54408;SDS011;40315;48.620;9.828;2023-06-04T10:05:16;4.75;;;3.17;;
54408;SDS011;40315;48.620;9.828;2023-06-04T10:07:47;6.65;;;3.30;;
54408;SDS011;40315;48.620;9.828;2023-06-04T10:10:20;4.80;;;3.50;;
54408;SDS011;40315;48.620;9.828;2023-06-04T10:12:53;3.60;;;3.30;;
54408;SDS011;40315;48.620;9.828;2023-06-04T10:15:26;4.07;;;3.60;;
54408;SDS011;40315;48.620;9.828;2023-06-04T10:17:59;5.03;;;3.13;;
54408;SDS011;40315;48.620;9.828;2023-06-04T10:20:27;4.60;;;3.50;;
54408;SDS011;40315;48.620;9.828;2023-06-04T10:22:55;3.45;;;3.15;;
54408;SDS011;40315;48.620;9.828;2023-06-04T10:25:24;5.00;;;3.50;;
54408;SDS011;40315;48.620;9.828;2023-06-04T10:27:52;4.05;;;3.30;;
54408;SDS011;40315;48.620;9.828;2023-06-04T10:30:22;4.03;;;3.30;;
54408;SDS011;40315;48.620;9.828;2023-06-04T10:32:49;4.47;;;3.58;;
54408;SDS011;40315;48.620;9.828;2023-06-04T10:35:17;5.30;;;3.58;;
54408;SDS011;40315;48.620;9.828;2023-06-04T10:37:44;5.43;;;3.13;;
54408;SDS011;40315;48.620;9.828;2023-06-04T10:40:15;4.10;;;3.35;;
54408;SDS011;40315;48.620;9.828;2023-06-04T10:42:43;4.38;;;3.30;;
54408;SDS011;40315;48.620;9.828;2023-06-04T10:45:10;4.28;;;3.63;;
54408;SDS011;40315;48.620;9.828;2023-06-04T10:47:40;6.28;;;3.60;;
54408;SDS011;40315;48.620;9.828;2023-06-04T10:50:09;4.32;;;3.40;;
54408;SDS011;40315;48.620;9.828;2023-06-04T10:52:37;5.13;;;3.78;;
54408;SDS011;40315;48.620;9.828;2023-06-04T10:55:05;4.28;;;3.67;;
54408;SDS011;40315;48.620;9.828;2023-06-04T10:57:33;4.72;;;3.35;;
54408;SDS011;40315;48.620;9.828;2023-06-04T11:00:06;4.93;;;3.90;;
54408;SDS011;40315;48.620;9.828;2023-06-04T11:02:35;5.38;;;3.95;;
54408;SDS011;40315;48.620;9.828;2023-06-04T11:05:07;5.15;;;3.70;;
54408;SDS011;40315;48.620;9.828;2023-06-04T11:07:41;4.10;;;3.70;;
54408;SDS011;40315;48.620;9.828;2023-06-04T11:10:10;4.60;;;3.83;;
54408;SDS011;40315;48.620;9.828;2023-06-04T11:12:41;6.75;;;4.53;;
54408;SDS011;40315;48.620;9.828;2023-06-04T11:15:10;5.38;;;3.88;;
54408;SDS011;40315;48.620;9.828;2023-06-04T11:17:37;6.47;;;4.00;;
54408;SDS011;40315;48.620;9.828;2023-06-04T11:20:15;4.97;;;3.78;;
54408;SDS011;40315;48.620;9.828;2023-06-04T11:22:49;4.30;;;3.90;;
54408;SDS011;40315;48.620;9.828;2023-06-04T11:25:20;5.57;;;3.97;;
54408;SDS011;40315;48.620;9.828;2023-06-04T11:27:51;4.05;;;3.65;;
54408;SDS011;40315;48.620;9.828;2023-06-04T11:30:20;5.57;;;4.10;;
54408;SDS011;40315;48.620;9.828;2023-06-04T11:32:48;4.72;;;3.85;;
54408;SDS011;40315;48.620;9.828;2023-06-04T11:35:15;4.65;;;3.80;;
54408;SDS011;40315;48.620;9.828;2023-06-04T11:37:52;5.13;;;4.18;;
54408;SDS011;40315;48.620;9.828;2023-06-04T11:40:20;5.78;;;3.45;;
54408;SDS011;40315;48.620;9.828;2023-06-04T11:42:47;5.95;;;3.80;;
54408;SDS011;40315;48.620;9.828;2023-06-04T11:45:15;4.50;;;3.65;;
54408;SDS011;40315;48.620;9.828;2023-06-04T11:47:49;3.92;;;3.50;;
54408;SDS011;40315;48.620;9.828;2023-06-04T11:50:18;5.88;;;3.60;;
54408;SDS011;40315;48.620;9.828;2023-06-04T11:52:48;4.43;;;4.03;;
54408;SDS011;40315;48.620;9.828;2023-06-04T11:55:22;4.50;;;3.80;;
54408;SDS011;40315;48.620;9.828;2023-06-04T11:57:50;4.22;;;3.83;;
54408;SDS011;40315;48.620;9.828;2023-06-04T12:00:19;4.03;;;3.17;;
54408;SDS011;40315;48.620;9.828;2023-06-04T12:02:51;4.00;;;3.60;;
54408;SDS011;40315;48.620;9.828;2023-06-04T12:05:20;3.78;;;3.42;;
54408;SDS011;40315;48.620;9.828;2023-06-04T12:07:49;6.07;;;3.50;;
54408;SDS011;40315;48.620;9.828;2023-06-04T12:10:17;5.05;;;3.53;;
54408;SDS011;40315;48.620;9.828;2023-06-04T12:12:44;4.97;;;3.58;;
54408;SDS011;40315;48.620;9.828;2023-06-04T12:15:18;3.67;;;3.35;;
54408;SDS011;40315;48.620;9.828;2023-06-04T12:17:51;3.80;;;3.17;;
54408;SDS011;40315;48.620;9.828;2023-06-04T12:20:30;6.53;;;3.63;;
54408;SDS011;40315;48.620;9.828;2023-06-04T12:23:00;4.30;;;3.60;;
54408;SDS011;40315;48.620;9.828;2023-06-04T12:25:27;5.28;;;3.63;;
54408;SDS011;40315;48.620;9.828;2023-06-04T12:27:55;5.20;;;3.75;;
54408;SDS011;40315;48.620;9.828;2023-06-04T12:30:22;5.43;;;3.65;;
54408;SDS011;40315;48.620;9.828;2023-06-04T12:32:51;5.75;;;5.25;;
54408;SDS011;40315;48.620;9.828;2023-06-04T12:35:19;31.90;;;27.73;;
54408;SDS011;40315;48.620;9.828;2023-06-04T12:37:46;109.25;;;54.25;;
54408;SDS011;40315;48.620;9.828;2023-06-04T12:40:13;202.45;;;184.27;;
54408;SDS011;40315;48.620;9.828;2023-06-04T12:42:40;290.95;;;262.33;;
54408;SDS011;40315;48.620;9.828;2023-06-04T12:45:09;449.58;;;275.85;;
54408;SDS011;40315;48.620;9.828;2023-06-04T12:47:42;540.10;;;396.48;;
54408;SDS011;40315;48.620;9.828;2023-06-04T12:50:11;70.68;;;54.05;;
54408;SDS011;40315;48.620;9.828;2023-06-04T12:52:38;7.05;;;5.45;;
54408;SDS011;40315;48.620;9.828;2023-06-04T12:55:06;4.65;;;4.13;;
54408;SDS011;40315;48.620;9.828;2023-06-04T12:57:34;4.30;;;3.58;;
54408;SDS011;40315;48.620;9.828;2023-06-04T13:00:05;4.28;;;3.60;;
54408;SDS011;40315;48.620;9.828;2023-06-04T13:02:33;5.70;;;3.92;;
54408;SDS011;40315;48.620;9.828;2023-06-04T13:05:00;5.28;;;3.33;;
54408;SDS011;40315;48.620;9.828;2023-06-04T13:07:29;4.47;;;3.40;;
54408;SDS011;40315;48.620;9.828;2023-06-04T13:09:56;4.93;;;3.35;;
54408;SDS011;40315;48.620;9.828;2023-06-04T13:12:23;3.38;;;3.10;;
54408;SDS011;40315;48.620;9.828;2023-06-04T13:14:50;4.53;;;3.70;;
54408;SDS011;40315;48.620;9.828;2023-06-04T13:17:17;5.65;;;3.83;;
54408;SDS011;40315;48.620;9.828;2023-06-04T13:19:44;3.80;;;3.38;;
54408;SDS011;40315;48.620;9.828;2023-06-04T13:22:11;5.50;;;3.72;;
54408;SDS011;40315;48.620;9.828;2023-06-04T13:24:39;4.32;;;3.60;;
54408;SDS011;40315;48.620;9.828;2023-06-04T13:27:06;3.72;;;3.38;;
54408;SDS011;40315;48.620;9.828;2023-06-04T13:29:36;4.25;;;3.40;;
54408;SDS011;40315;48.620;9.828;2023-06-04T13:32:03;3.90;;;3.17;;
54408;SDS011;40315;48.620;9.828;2023-06-04T13:34:31;4.80;;;3.90;;
54408;SDS011;40315;48.620;9.828;2023-06-04T13:36:58;4.05;;;3.63;;
54408;SDS011;40315;48.620;9.828;2023-06-04T13:39:25;5.25;;;4.03;;
54408;SDS011;40315;48.620;9.828;2023-06-04T13:41:56;4.28;;;3.38;;
54408;SDS011;40315;48.620;9.828;2023-06-04T13:44:22;4.90;;;3.80;;
54408;SDS011;40315;48.620;9.828;2023-06-04T13:46:51;3.88;;;3.42;;
54408;SDS011;40315;48.620;9.828;2023-06-04T13:49:18;6.70;;;3.85;;
54408;SDS011;40315;48.620;9.828;2023-06-04T13:51:48;4.78;;;3.53;;
54408;SDS011;40315;48.620;9.828;2023-06-04T13:54:16;4.60;;;3.72;;
54408;SDS011;40315;48.620;9.828;2023-06-04T13:56:45;4.32;;;3.85;;
54408;SDS011;40315;48.620;9.828;2023-06-04T13:59:15;4.35;;;3.90;;
54408;SDS011;40315;48.620;9.828;2023-06-04T14:01:43;3.90;;;3.60;;
54408;SDS011;40315;48.620;9.828;2023-06-04T14:04:12;4.03;;;3.38;;
54408;SDS011;40315;48.620;9.828;2023-06-04T14:06:39;3.95;;;3.58;;
54408;SDS011;40315;48.620;9.828;2023-06-04T14:09:06;6.28;;;4.00;;
54408;SDS011;40315;48.620;9.828;2023-06-04T14:11:34;4.55;;;4.10;;
54408;SDS011;40315;48.620;9.828;2023-06-04T14:14:03;5.90;;;3.88;;
54408;SDS011;40315;48.620;9.828;2023-06-04T14:16:32;4.88;;;3.55;;
54408;SDS011;40315;48.620;9.828;2023-06-04T14:19:00;6.18;;;3.50;;
54408;SDS011;40315;48.620;9.828;2023-06-04T14:21:27;5.35;;;3.88;;
54408;SDS011;40315;48.620;9.828;2023-06-04T14:23:54;4.43;;;3.60;;
54408;SDS011;40315;48.620;9.828;2023-06-04T14:26:21;4.47;;;4.07;;
54408;SDS011;40315;48.620;9.828;2023-06-04T14:28:50;5.85;;;3.90;;
54408;SDS011;40315;48.620;9.828;2023-06-04T14:31:19;6.88;;;4.20;;
54408;SDS011;40315;48.620;9.828;2023-06-04T14:33:47;4.07;;;3.67;;
54408;SDS011;40315;48.620;9.828;2023-06-04T14:36:15;3.67;;;3.38;;
54408;SDS011;40315;48.620;9.828;2023-06-04T14:38:43;4.93;;;3.90;;
54408;SDS011;40315;48.620;9.828;2023-06-04T14:41:11;4.30;;;3.90;;
54408;SDS011;40315;48.620;9.828;2023-06-04T14:43:38;4.43;;;3.83;;
54408;SDS011;40315;48.620;9.828;2023-06-04T14:46:05;5.88;;;3.97;;
54408;SDS011;40315;48.620;9.828;2023-06-04T14:48:34;3.80;;;3.50;;
54408;SDS011;40315;48.620;9.828;2023-06-04T14:51:02;5.97;;;3.75;;
54408;SDS011;40315;48.620;9.828;2023-06-04T14:53:31;4.05;;;3.65;;
54408;SDS011;40315;48.620;9.828;2023-06-04T14:55:58;5.75;;;3.83;;
54408;SDS011;40315;48.620;9.828;2023-06-04T14:58:25;4.60;;;4.00;;
54408;SDS011;40315;48.620;9.828;2023-06-04T15:00:52;4.18;;;3.78;;
54408;SDS011;40315;48.620;9.828;2023-06-04T15:03:22;5.65;;;3.95;;
54408;SDS011;40315;48.620;9.828;2023-06-04T15:05:49;3.88;;;3.47;;
54408;SDS011;40315;48.620;9.828;2023-06-04T15:08:19;5.72;;;3.83;;
54408;SDS011;40315;48.620;9.828;2023-06-04T15:10:46;4.28;;;3.83;;
54408;SDS011;40315;48.620;9.828;2023-06-04T15:13:14;4.30;;;3.88;;
54408;SDS011;40315;48.620;9.828;2023-06-04T15:15:44;6.22;;;3.78;;
54408;SDS011;40315;48.620;9.828;2023-06-04T15:18:12;4.68;;;3.70;;
54408;SDS011;40315;48.620;9.828;2023-06-04T15:20:39;5.15;;;3.50;;
54408;SDS011;40315;48.620;9.828;2023-06-04T15:23:07;4.65;;;3.60;;
54408;SDS011;40315;48.620;9.828;2023-06-04T15:25:35;4.20;;;3.63;;
54408;SDS011;40315;48.620;9.828;2023-06-04T15:28:04;4.05;;;3.63;;
54408;SDS011;40315;48.620;9.828;2023-06-04T15:30:31;4.20;;;3.58;;
54408;SDS011;40315;48.620;9.828;2023-06-04T15:32:59;4.40;;;3.85;;
54408;SDS011;40315;48.620;9.828;2023-06-04T15:35:27;5.75;;;3.80;;
54408;SDS011;40315;48.620;9.828;2023-06-04T15:37:55;4.30;;;3.90;;
54408;SDS011;40315;48.620;9.828;2023-06-04T15:40:24;4.65;;;3.55;;
54408;SDS011;40315;48.620;9.828;2023-06-04T15:42:54;4.55;;;3.88;;
54408;SDS011;40315;48.620;9.828;2023-06-04T15:45:21;4.28;;;3.88;;
54408;SDS011;40315;48.620;9.828;2023-06-04T15:47:52;3.95;;;3.53;;
54408;SDS011;40315;48.620;9.828;2023-06-04T15:50:19;4.93;;;3.90;;
54408;SDS011;40315;48.620;9.828;2023-06-04T15:55:18;4.50;;;4.10;;
54408;SDS011;40315;48.620;9.828;2023-06-04T15:57:46;4.53;;;3.95;;
54408;SDS011;40315;48.620;9.828;2023-06-04T16:00:15;4.28;;;3.88;;
54408;SDS011;40315;48.620;9.828;2023-06-04T16:02:42;4.38;;;3.97;;
54408;SDS011;40315;48.620;9.828;2023-06-04T16:05:10;4.82;;;4.32;;
54408;SDS011;40315;48.620;9.828;2023-06-04T16:07:38;4.45;;;3.50;;
54408;SDS011;40315;48.620;9.828;2023-06-04T16:10:05;5.28;;;4.05;;
54408;SDS011;40315;48.620;9.828;2023-06-04T16:12:33;5.70;;;3.83;;
54408;SDS011;40315;48.620;9.828;2023-06-04T16:15:00;4.82;;;3.90;;
54408;SDS011;40315;48.620;9.828;2023-06-04T16:17:28;5.18;;;3.50;;
54408;SDS011;40315;48.620;9.828;2023-06-04T16:19:56;4.22;;;3.83;;
54408;SDS011;40315;48.620;9.828;2023-06-04T16:22:26;4.03;;;3.63;;
54408;SDS011;40315;48.620;9.828;2023-06-04T16:24:53;3.95;;;3.65;;
54408;SDS011;40315;48.620;9.828;2023-06-04T16:27:21;4.85;;;3.50;;
54408;SDS011;40315;48.620;9.828;2023-06-04T16:29:48;4.10;;;3.63;;
54408;SDS011;40315;48.620;9.828;2023-06-04T16:32:15;4.63;;;3.33;;
54408;SDS011;40315;48.620;9.828;2023-06-04T16:34:44;5.15;;;3.35;;
54408;SDS011;40315;48.620;9.828;2023-06-04T16:37:13;3.97;;;3.30;;
54408;SDS011;40315;48.620;9.828;2023-06-04T16:39:40;4.35;;;3.72;;
54408;SDS011;40315;48.620;9.828;2023-06-04T16:42:08;4.20;;;3.60;;
54408;SDS011;40315;48.620;9.828;2023-06-04T16:44:35;4.22;;;3.60;;
54408;SDS011;40315;48.620;9.828;2023-06-04T16:47:02;4.70;;;3.42;;
54408;SDS011;40315;48.620;9.828;2023-06-04T16:49:29;4.40;;;3.40;;
54408;SDS011;40315;48.620;9.828;2023-06-04T16:51:58;4.15;;;3.40;;
54408;SDS011;40315;48.620;9.828;2023-06-04T16:54:25;4.57;;;3.70;;
54408;SDS011;40315;48.620;9.828;2023-06-04T16:56:52;4.10;;;3.10;;
54408;SDS011;40315;48.620;9.828;2023-06-04T16:59:21;3.83;;;3.22;;
54408;SDS011;40315;48.620;9.828;2023-06-04T17:01:52;3.78;;;3.35;;
54408;SDS011;40315;48.620;9.828;2023-06-04T17:04:20;4.68;;;3.17;;
54408;SDS011;40315;48.620;9.828;2023-06-04T17:06:47;4.28;;;3.47;;
54408;SDS011;40315;48.620;9.828;2023-06-04T17:09:15;4.45;;;3.33;;
54408;SDS011;40315;48.620;9.828;2023-06-04T17:11:42;4.03;;;3.45;;
54408;SDS011;40315;48.620;9.828;2023-06-04T17:14:12;4.88;;;3.63;;
54408;SDS011;40315;48.620;9.828;2023-06-04T17:16:41;4.25;;;3.60;;
54408;SDS011;40315;48.620;9.828;2023-06-04T17:19:08;6.00;;;3.35;;
54408;SDS011;40315;48.620;9.828;2023-06-04T17:21:35;3.72;;;3.33;;
54408;SDS011;40315;48.620;9.828;2023-06-04T17:24:03;5.93;;;3.45;;
54408;SDS011;40315;48.620;9.828;2023-06-04T17:26:34;4.53;;;3.65;;
54408;SDS011;40315;48.620;9.828;2023-06-04T17:29:01;3.75;;;3.22;;
54408;SDS011;40315;48.620;9.828;2023-06-04T17:31:30;4.65;;;3.33;;
54408;SDS011;40315;48.620;9.828;2023-06-04T17:33:58;5.22;;;3.53;;
54408;SDS011;40315;48.620;9.828;2023-06-04T17:36:25;4.75;;;3.20;;
54408;SDS011;40315;48.620;9.828;2023-06-04T17:38:52;5.05;;;3.90;;
54408;SDS011;40315;48.620;9.828;2023-06-04T17:41:19;3.80;;;3.50;;
54408;SDS011;40315;48.620;9.828;2023-06-04T17:43:48;4.65;;;3.58;;
54408;SDS011;40315;48.620;9.828;2023-06-04T17:46:15;5.72;;;3.63;;
54408;SDS011;40315;48.620;9.828;2023-06-04T17:48:43;5.68;;;3.35;;
54408;SDS011;40315;48.620;9.828;2023-06-04T17:51:11;4.38;;;3.45;;
54408;SDS011;40315;48.620;9.828;2023-06-04T17:53:39;4.35;;;3.75;;
54408;SDS011;40315;48.620;9.828;2023-06-04T17:56:08;3.50;;;3.20;;
54408;SDS011;40315;48.620;9.828;2023-06-04T17:58:35;3.97;;;3.50;;
54408;SDS011;40315;48.620;9.828;2023-06-04T18:01:06;4.13;;;3.38;;
54408;SDS011;40315;48.620;9.828;2023-06-04T18:03:35;4.95;;;3.70;;
54408;SDS011;40315;48.620;9.828;2023-06-04T18:06:03;4.22;;;3.60;;
54408;SDS011;40315;48.620;9.828;2023-06-04T18:08:30;3.65;;;3.30;;
54408;SDS011;40315;48.620;9.828;2023-06-04T18:10:57;4.35;;;3.22;;
54408;SDS011;40315;48.620;9.828;2023-06-04T18:13:25;4.13;;;3.20;;
54408;SDS011;40315;48.620;9.828;2023-06-04T18:15:52;4.50;;;3.35;;
54408;SDS011;40315;48.620;9.828;2023-06-04T18:18:21;4.45;;;3.22;;
54408;SDS011;40315;48.620;9.828;2023-06-04T18:20:51;5.72;;;3.45;;
54408;SDS011;40315;48.620;9.828;2023-06-04T18:23:18;3.58;;;3.22;;
54408;SDS011;40315;48.620;9.828;2023-06-04T18:25:45;4.43;;;3.13;;
54408;SDS011;40315;48.620;9.828;2023-06-04T18:28:13;3.85;;;3.30;;
54408;SDS011;40315;48.620;9.828;2023-06-04T18:30:41;3.83;;;3.30;;
54408;SDS011;40315;48.620;9.828;2023-06-04T18:33:08;5.63;;;3.30;;
54408;SDS011;40315;48.620;9.828;2023-06-04T18:35:37;4.47;;;3.25;;
54408;SDS011;40315;48.620;9.828;2023-06-04T18:38:06;4.90;;;2.90;;
54408;SDS011;40315;48.620;9.828;2023-06-04T18:40:36;3.88;;;3.20;;
54408;SDS011;40315;48.620;9.828;2023-06-04T18:43:03;5.00;;;3.25;;
54408;SDS011;40315;48.620;9.828;2023-06-04T18:45:31;6.03;;;3.30;;
54408;SDS011;40315;48.620;9.828;2023-06-04T18:47:58;5.65;;;3.22;;
54408;SDS011;40315;48.620;9.828;2023-06-04T18:50:25;4.88;;;3.50;;
54408;SDS011;40315;48.620;9.828;2023-06-04T18:52:58;5.78;;;3.33;;
54408;SDS011;40315;48.620;9.828;2023-06-04T18:55:26;3.95;;;3.40;;
54408;SDS011;40315;48.620;9.828;2023-06-04T18:57:56;4.30;;;3.30;;
54408;SDS011;40315;48.620;9.828;2023-06-04T19:00:26;3.80;;;3.42;;
54408;SDS011;40315;48.620;9.828;2023-06-04T19:02:53;3.83;;;3.20;;
54408;SDS011;40315;48.620;9.828;2023-06-04T19:05:20;5.50;;;3.35;;
54408;SDS011;40315;48.620;9.828;2023-06-04T19:07:47;4.53;;;3.17;;
54408;SDS011;40315;48.620;9.828;2023-06-04T19:10:18;4.85;;;3.30;;
54408;SDS011;40315;48.620;9.828;2023-06-04T19:12:46;4.80;;;3.50;;
54408;SDS011;40315;48.620;9.828;2023-06-04T19:15:16;7.57;;;3.70;;
54408;SDS011;40315;48.620;9.828;2023-06-04T19:17:46;4.93;;;3.30;;
54408;SDS011;40315;48.620;9.828;2023-06-04T19:20:14;4.28;;;3.50;;
54408;SDS011;40315;48.620;9.828;2023-06-04T19:22:45;3.67;;;3.30;;
54408;SDS011;40315;48.620;9.828;2023-06-04T19:25:14;4.32;;;3.28;;
54408;SDS011;40315;48.620;9.828;2023-06-04T19:27:43;3.58;;;3.15;;
54408;SDS011;40315;48.620;9.828;2023-06-04T19:30:11;3.80;;;3.38;;
54408;SDS011;40315;48.620;9.828;2023-06-04T19:32:42;4.43;;;3.45;;
54408;SDS011;40315;48.620;9.828;2023-06-04T19:35:12;4.60;;;3.33;;
54408;SDS011;40315;48.620;9.828;2023-06-04T19:37:39;3.97;;;3.30;;
54408;SDS011;40315;48.620;9.828;2023-06-04T19:40:07;3.97;;;3.42;;
54408;SDS011;40315;48.620;9.828;2023-06-04T19:42:34;4.65;;;3.47;;
54408;SDS011;40315;48.620;9.828;2023-06-04T19:45:04;3.28;;;2.97;;
54408;SDS011;40315;48.620;9.828;2023-06-04T19:47:35;4.68;;;3.33;;
54408;SDS011;40315;48.620;9.828;2023-06-04T19:50:04;5.00;;;3.20;;
54408;SDS011;40315;48.620;9.828;2023-06-04T19:52:32;4.93;;;3.40;;
54408;SDS011;40315;48.620;9.828;2023-06-04T19:54:59;5.50;;;3.03;;
54408;SDS011;40315;48.620;9.828;2023-06-04T19:57:29;3.63;;;3.00;;
54408;SDS011;40315;48.620;9.828;2023-06-04T19:59:57;3.35;;;3.05;;
54408;SDS011;40315;48.620;9.828;2023-06-04T20:02:26;3.50;;;3.15;;
54408;SDS011;40315;48.620;9.828;2023-06-04T20:04:53;3.70;;;3.17;;
54408;SDS011;40315;48.620;9.828;2023-06-04T20:07:21;5.90;;;3.28;;
54408;SDS011;40315;48.620;9.828;2023-06-04T20:09:51;4.35;;;3.55;;
54408;SDS011;40315;48.620;9.828;2023-06-04T20:12:19;5.28;;;3.30;;
54408;SDS011;40315;48.620;9.828;2023-06-04T20:14:47;5.07;;;3.55;;
54408;SDS011;40315;48.620;9.828;2023-06-04T20:17:15;4.75;;;3.70;;
54408;SDS011;40315;48.620;9.828;2023-06-04T20:19:44;4.68;;;3.83;;
54408;SDS011;40315;48.620;9.828;2023-06-04T20:22:12;4.57;;;4.18;;
54408;SDS011;40315;48.620;9.828;2023-06-04T20:24:39;9.00;;;5.07;;
54408;SDS011;40315;48.620;9.828;2023-06-04T20:27:09;5.30;;;4.60;;
54408;SDS011;40315;48.620;9.828;2023-06-04T20:29:40;5.82;;;4.32;;
54408;SDS011;40315;48.620;9.828;2023-06-04T20:32:10;5.75;;;3.95;;
54408;SDS011;40315;48.620;9.828;2023-06-04T20:34:37;6.22;;;4.20;;
54408;SDS011;40315;48.620;9.828;2023-06-04T20:37:06;7.35;;;3.88;;
54408;SDS011;40315;48.620;9.828;2023-06-04T20:39:33;3.92;;;3.50;;
54408;SDS011;40315;48.620;9.828;2023-06-04T20:42:04;3.88;;;3.40;;
54408;SDS011;40315;48.620;9.828;2023-06-04T20:44:34;4.20;;;3.50;;
54408;SDS011;40315;48.620;9.828;2023-06-04T20:47:01;5.47;;;3.53;;
54408;SDS011;40315;48.620;9.828;2023-06-04T20:49:28;5.50;;;3.38;;
54408;SDS011;40315;48.620;9.828;2023-06-04T20:51:58;4.38;;;3.35;;